sensor_id;sensor_type;location;lat;lon;timestamp;P1;durP1;ratioP1;P2;durP2;ratioP2
3299;SDS011;1662;49.310;8.134;2022-12-18T00:01:18;50.13;;;21.63;;
3299;SDS011;1662;49.310;8.134;2022-12-18T00:03:46;48.58;;;22.85;;
3299;SDS011;1662;49.310;8.134;2022-12-18T00:06:12;52.42;;;22.17;;
3299;SDS011;1662;49.310;8.134;2022-12-18T00:08:38;46.20;;;21.85;;
3299;SDS011;1662;49.310;8.134;2022-12-18T00:11:05;48.42;;;23.58;;
3299;SDS011;1662;49.310;8.134;2022-12-18T00:13:32;52.00;;;23.58;;
3299;SDS011;1662;49.310;8.134;2022-12-18T00:16:04;48.87;;;22.80;;
3299;SDS011;1662;49.310;8.134;2022-12-18T00:19:52;53.90;;;24.75;;
3299;SDS011;1662;49.310;8.134;2022-12-18T00:22:17;51.30;;;24.07;;
3299;SDS011;1662;49.310;8.134;2022-12-18T00:24:43;39.60;;;19.73;;
3299;SDS011;1662;49.310;8.134;2022-12-18T00:27:08;46.80;;;22.20;;
3299;SDS011;1662;49.310;8.134;2022-12-18T00:29:34;55.63;;;24.40;;
3299;SDS011;1662;49.310;8.134;2022-12-18T00:31:59;49.60;;;24.73;;
3299;SDS011;1662;49.310;8.134;2022-12-18T00:34:25;55.83;;;23.33;;
3299;SDS011;1662;49.310;8.134;2022-12-18T00:38:33;54.38;;;22.58;;
3299;SDS011;1662;49.310;8.134;2022-12-18T00:40:59;60.22;;;23.80;;
3299;SDS011;1662;49.310;8.134;2022-12-18T00:43:24;60.73;;;25.77;;
3299;SDS011;1662;49.310;8.134;2022-12-18T00:45:50;53.57;;;23.23;;
3299;SDS011;1662;49.310;8.134;2022-12-18T00:48:16;52.00;;;24.83;;
3299;SDS011;1662;49.310;8.134;2022-12-18T00:50:42;46.53;;;21.13;;
3299;SDS011;1662;49.310;8.134;2022-12-18T00:55:47;56.25;;;22.67;;
3299;SDS011;1662;49.310;8.134;2022-12-18T00:58:13;51.73;;;22.70;;
3299;SDS011;1662;49.310;8.134;2022-12-18T01:00:40;52.35;;;21.27;;
3299;SDS011;1662;49.310;8.134;2022-12-18T01:03:06;49.20;;;22.10;;
3299;SDS011;1662;49.310;8.134;2022-12-18T01:05:32;48.55;;;19.70;;
3299;SDS011;1662;49.310;8.134;2022-12-18T01:07:58;53.50;;;22.13;;
3299;SDS011;1662;49.310;8.134;2022-12-18T01:10:24;40.45;;;19.80;;
3299;SDS011;1662;49.310;8.134;2022-12-18T01:14:57;46.55;;;22.17;;
3299;SDS011;1662;49.310;8.134;2022-12-18T01:17:23;57.20;;;21.47;;
3299;SDS011;1662;49.310;8.134;2022-12-18T01:19:49;45.25;;;22.33;;
3299;SDS011;1662;49.310;8.134;2022-12-18T01:22:15;58.40;;;22.90;;
3299;SDS011;1662;49.310;8.134;2022-12-18T01:24:41;50.70;;;23.33;;
3299;SDS011;1662;49.310;8.134;2022-12-18T01:27:06;55.87;;;22.40;;
3299;SDS011;1662;49.310;8.134;2022-12-18T01:29:32;49.67;;;22.90;;
3299;SDS011;1662;49.310;8.134;2022-12-18T01:33:25;48.13;;;21.75;;
3299;SDS011;1662;49.310;8.134;2022-12-18T01:35:51;48.60;;;21.13;;
3299;SDS011;1662;49.310;8.134;2022-12-18T01:38:17;50.97;;;22.70;;
3299;SDS011;1662;49.310;8.134;2022-12-18T01:40:42;46.77;;;23.00;;
3299;SDS011;1662;49.310;8.134;2022-12-18T01:43:08;44.80;;;22.50;;
3299;SDS011;1662;49.310;8.134;2022-12-18T01:45:34;48.95;;;22.40;;
3299;SDS011;1662;49.310;8.134;2022-12-18T01:48:04;50.40;;;21.50;;
3299;SDS011;1662;49.310;8.134;2022-12-18T01:52:53;47.78;;;22.10;;
3299;SDS011;1662;49.310;8.134;2022-12-18T01:55:22;54.22;;;22.10;;
3299;SDS011;1662;49.310;8.134;2022-12-18T01:57:53;53.05;;;22.23;;
3299;SDS011;1662;49.310;8.134;2022-12-18T02:00:21;48.33;;;21.63;;
3299;SDS011;1662;49.310;8.134;2022-12-18T02:02:47;55.10;;;23.13;;
3299;SDS011;1662;49.310;8.134;2022-12-18T02:05:19;42.20;;;20.53;;
3299;SDS011;1662;49.310;8.134;2022-12-18T02:12:36;47.78;;;21.52;;
3299;SDS011;1662;49.310;8.134;2022-12-18T02:18:07;45.13;;;22.25;;
3299;SDS011;1662;49.310;8.134;2022-12-18T02:23:24;55.40;;;23.17;;
3299;SDS011;1662;49.310;8.134;2022-12-18T02:28:31;52.95;;;21.98;;
3299;SDS011;1662;49.310;8.134;2022-12-18T02:32:00;46.60;;;22.13;;
3299;SDS011;1662;49.310;8.134;2022-12-18T02:34:31;52.47;;;22.35;;
3299;SDS011;1662;49.310;8.134;2022-12-18T02:37:02;43.08;;;20.65;;
3299;SDS011;1662;49.310;8.134;2022-12-18T02:39:29;47.63;;;21.45;;
3299;SDS011;1662;49.310;8.134;2022-12-18T02:42:04;49.83;;;21.92;;
3299;SDS011;1662;49.310;8.134;2022-12-18T02:44:33;47.25;;;20.42;;
3299;SDS011;1662;49.310;8.134;2022-12-18T02:47:00;46.13;;;21.52;;
3299;SDS011;1662;49.310;8.134;2022-12-18T02:51:29;50.72;;;21.70;;
3299;SDS011;1662;49.310;8.134;2022-12-18T02:54:17;49.78;;;21.38;;
3299;SDS011;1662;49.310;8.134;2022-12-18T02:57:13;50.42;;;22.48;;
3299;SDS011;1662;49.310;8.134;2022-12-18T03:00:03;49.85;;;23.05;;
3299;SDS011;1662;49.310;8.134;2022-12-18T03:02:46;50.17;;;21.85;;
3299;SDS011;1662;49.310;8.134;2022-12-18T03:05:28;54.45;;;22.02;;
3299;SDS011;1662;49.310;8.134;2022-12-18T03:09:24;49.65;;;21.35;;
3299;SDS011;1662;49.310;8.134;2022-12-18T03:12:19;49.58;;;21.90;;
3299;SDS011;1662;49.310;8.134;2022-12-18T03:14:59;49.30;;;23.42;;
3299;SDS011;1662;49.310;8.134;2022-12-18T03:17:46;45.80;;;20.90;;
3299;SDS011;1662;49.310;8.134;2022-12-18T03:20:18;50.55;;;21.92;;
3299;SDS011;1662;49.310;8.134;2022-12-18T03:22:46;43.08;;;20.80;;
3299;SDS011;1662;49.310;8.134;2022-12-18T03:27:07;45.13;;;21.38;;
3299;SDS011;1662;49.310;8.134;2022-12-18T03:29:43;49.50;;;24.00;;
3299;SDS011;1662;49.310;8.134;2022-12-18T03:35:14;49.38;;;24.85;;
3299;SDS011;1662;49.310;8.134;2022-12-18T03:37:45;45.42;;;22.33;;
3299;SDS011;1662;49.310;8.134;2022-12-18T03:40:11;51.40;;;23.97;;
3299;SDS011;1662;49.310;8.134;2022-12-18T03:45:22;48.17;;;22.70;;
3299;SDS011;1662;49.310;8.134;2022-12-18T03:48:04;44.28;;;22.75;;
3299;SDS011;1662;49.310;8.134;2022-12-18T03:55:53;41.00;;;21.02;;
3299;SDS011;1662;49.310;8.134;2022-12-18T03:58:21;44.38;;;21.42;;
3299;SDS011;1662;49.310;8.134;2022-12-18T04:00:49;46.45;;;21.80;;
3299;SDS011;1662;49.310;8.134;2022-12-18T04:05:00;44.13;;;20.45;;
3299;SDS011;1662;49.310;8.134;2022-12-18T04:07:29;44.90;;;22.23;;
3299;SDS011;1662;49.310;8.134;2022-12-18T04:09:56;43.30;;;21.25;;
3299;SDS011;1662;49.310;8.134;2022-12-18T04:12:25;42.85;;;20.08;;
3299;SDS011;1662;49.310;8.134;2022-12-18T04:14:51;52.45;;;22.90;;
3299;SDS011;1662;49.310;8.134;2022-12-18T04:17:17;46.10;;;22.55;;
3299;SDS011;1662;49.310;8.134;2022-12-18T04:19:45;41.42;;;21.83;;
3299;SDS011;1662;49.310;8.134;2022-12-18T04:24:12;43.83;;;21.52;;
3299;SDS011;1662;49.310;8.134;2022-12-18T04:26:38;40.33;;;20.30;;
3299;SDS011;1662;49.310;8.134;2022-12-18T04:29:04;45.73;;;21.73;;
3299;SDS011;1662;49.310;8.134;2022-12-18T04:31:32;39.40;;;20.50;;
3299;SDS011;1662;49.310;8.134;2022-12-18T04:33:58;53.08;;;22.65;;
3299;SDS011;1662;49.310;8.134;2022-12-18T04:36:23;48.03;;;23.00;;
3299;SDS011;1662;49.310;8.134;2022-12-18T04:38:49;50.87;;;22.90;;
3299;SDS011;1662;49.310;8.134;2022-12-18T04:43:56;43.30;;;22.88;;
3299;SDS011;1662;49.310;8.134;2022-12-18T04:46:22;59.95;;;25.45;;
3299;SDS011;1662;49.310;8.134;2022-12-18T04:48:48;47.40;;;23.17;;
3299;SDS011;1662;49.310;8.134;2022-12-18T04:51:13;51.80;;;22.20;;
3299;SDS011;1662;49.310;8.134;2022-12-18T04:53:39;50.72;;;22.45;;
3299;SDS011;1662;49.310;8.134;2022-12-18T04:56:06;45.17;;;22.03;;
3299;SDS011;1662;49.310;8.134;2022-12-18T04:58:37;46.95;;;24.13;;
3299;SDS011;1662;49.310;8.134;2022-12-18T05:03:20;51.03;;;21.20;;
3299;SDS011;1662;49.310;8.134;2022-12-18T05:05:49;47.43;;;23.10;;
3299;SDS011;1662;49.310;8.134;2022-12-18T05:08:17;42.55;;;23.27;;
3299;SDS011;1662;49.310;8.134;2022-12-18T05:10:43;46.27;;;25.27;;
3299;SDS011;1662;49.310;8.134;2022-12-18T05:13:09;44.13;;;23.10;;
3299;SDS011;1662;49.310;8.134;2022-12-18T05:15:35;47.47;;;23.50;;
3299;SDS011;1662;49.310;8.134;2022-12-18T05:18:00;52.63;;;26.17;;
3299;SDS011;1662;49.310;8.134;2022-12-18T05:21:34;50.58;;;25.75;;
3299;SDS011;1662;49.310;8.134;2022-12-18T05:24:00;44.87;;;22.33;;
3299;SDS011;1662;49.310;8.134;2022-12-18T05:26:28;46.57;;;23.70;;
3299;SDS011;1662;49.310;8.134;2022-12-18T05:28:54;62.08;;;27.23;;
3299;SDS011;1662;49.310;8.134;2022-12-18T05:31:21;54.10;;;26.02;;
3299;SDS011;1662;49.310;8.134;2022-12-18T05:33:46;50.10;;;24.73;;
3299;SDS011;1662;49.310;8.134;2022-12-18T05:36:12;53.13;;;26.50;;
3299;SDS011;1662;49.310;8.134;2022-12-18T05:40:47;50.97;;;23.10;;
3299;SDS011;1662;49.310;8.134;2022-12-18T05:43:13;56.95;;;25.00;;
3299;SDS011;1662;49.310;8.134;2022-12-18T05:45:39;45.53;;;25.43;;
3299;SDS011;1662;49.310;8.134;2022-12-18T05:48:06;48.05;;;26.63;;
3299;SDS011;1662;49.310;8.134;2022-12-18T05:50:37;55.30;;;26.15;;
3299;SDS011;1662;49.310;8.134;2022-12-18T05:53:04;48.17;;;24.88;;
3299;SDS011;1662;49.310;8.134;2022-12-18T05:55:36;51.17;;;26.27;;
3299;SDS011;1662;49.310;8.134;2022-12-18T05:59:57;50.80;;;24.05;;
3299;SDS011;1662;49.310;8.134;2022-12-18T06:02:23;46.73;;;23.50;;
3299;SDS011;1662;49.310;8.134;2022-12-18T06:04:48;54.30;;;24.13;;
3299;SDS011;1662;49.310;8.134;2022-12-18T06:07:14;48.87;;;26.63;;
3299;SDS011;1662;49.310;8.134;2022-12-18T06:09:42;55.13;;;27.13;;
3299;SDS011;1662;49.310;8.134;2022-12-18T06:12:11;32.28;;;16.45;;
3299;SDS011;1662;49.310;8.134;2022-12-18T06:14:36;77.60;;;34.53;;
3299;SDS011;1662;49.310;8.134;2022-12-18T06:18:11;61.00;;;30.88;;
3299;SDS011;1662;49.310;8.134;2022-12-18T06:20:37;58.30;;;28.10;;
3299;SDS011;1662;49.310;8.134;2022-12-18T06:23:04;49.00;;;25.50;;
3299;SDS011;1662;49.310;8.134;2022-12-18T06:25:30;56.25;;;27.33;;
3299;SDS011;1662;49.310;8.134;2022-12-18T06:27:56;59.30;;;27.40;;
3299;SDS011;1662;49.310;8.134;2022-12-18T06:30:22;57.80;;;28.57;;
3299;SDS011;1662;49.310;8.134;2022-12-18T06:32:50;58.67;;;26.95;;
3299;SDS011;1662;49.310;8.134;2022-12-18T06:36:55;55.15;;;26.15;;
3299;SDS011;1662;49.310;8.134;2022-12-18T06:39:23;54.70;;;27.45;;
3299;SDS011;1662;49.310;8.134;2022-12-18T06:41:52;52.78;;;29.15;;
3299;SDS011;1662;49.310;8.134;2022-12-18T06:44:17;54.90;;;29.20;;
3299;SDS011;1662;49.310;8.134;2022-12-18T06:46:45;51.30;;;26.27;;
3299;SDS011;1662;49.310;8.134;2022-12-18T06:49:11;52.83;;;26.92;;
3299;SDS011;1662;49.310;8.134;2022-12-18T06:51:37;47.85;;;25.73;;
3299;SDS011;1662;49.310;8.134;2022-12-18T06:55:51;48.85;;;25.65;;
3299;SDS011;1662;49.310;8.134;2022-12-18T06:58:17;60.07;;;28.40;;
3299;SDS011;1662;49.310;8.134;2022-12-18T07:00:43;52.87;;;26.33;;
3299;SDS011;1662;49.310;8.134;2022-12-18T07:03:11;50.80;;;24.40;;
3299;SDS011;1662;49.310;8.134;2022-12-18T07:05:40;58.30;;;27.10;;
3299;SDS011;1662;49.310;8.134;2022-12-18T07:08:05;51.58;;;26.13;;
3299;SDS011;1662;49.310;8.134;2022-12-18T07:10:31;50.72;;;26.58;;
3299;SDS011;1662;49.310;8.134;2022-12-18T07:14:32;57.25;;;27.80;;
3299;SDS011;1662;49.310;8.134;2022-12-18T07:16:58;45.13;;;24.67;;
3299;SDS011;1662;49.310;8.134;2022-12-18T07:19:24;60.22;;;26.88;;
3299;SDS011;1662;49.310;8.134;2022-12-18T07:21:52;47.07;;;27.40;;
3299;SDS011;1662;49.310;8.134;2022-12-18T07:24:20;64.80;;;27.33;;
3299;SDS011;1662;49.310;8.134;2022-12-18T07:26:48;51.57;;;25.13;;
3299;SDS011;1662;49.310;8.134;2022-12-18T07:31:59;54.10;;;30.85;;
3299;SDS011;1662;49.310;8.134;2022-12-18T07:34:25;65.40;;;29.23;;
3299;SDS011;1662;49.310;8.134;2022-12-18T07:36:50;51.50;;;25.73;;
3299;SDS011;1662;49.310;8.134;2022-12-18T07:39:16;62.03;;;29.13;;
3299;SDS011;1662;49.310;8.134;2022-12-18T07:41:41;62.37;;;28.83;;
3299;SDS011;1662;49.310;8.134;2022-12-18T07:44:11;56.40;;;27.10;;
3299;SDS011;1662;49.310;8.134;2022-12-18T07:46:37;47.58;;;26.23;;
3299;SDS011;1662;49.310;8.134;2022-12-18T07:51:10;53.38;;;28.20;;
3299;SDS011;1662;49.310;8.134;2022-12-18T07:53:35;54.30;;;26.43;;
3299;SDS011;1662;49.310;8.134;2022-12-18T07:56:03;53.10;;;26.83;;
3299;SDS011;1662;49.310;8.134;2022-12-18T07:58:30;59.83;;;29.25;;
3299;SDS011;1662;49.310;8.134;2022-12-18T08:01:06;56.70;;;27.15;;
3299;SDS011;1662;49.310;8.134;2022-12-18T08:03:33;54.75;;;28.27;;
3299;SDS011;1662;49.310;8.134;2022-12-18T08:08:52;61.97;;;30.40;;
3299;SDS011;1662;49.310;8.134;2022-12-18T08:11:22;56.58;;;27.77;;
3299;SDS011;1662;49.310;8.134;2022-12-18T08:13:48;52.17;;;27.75;;
3299;SDS011;1662;49.310;8.134;2022-12-18T08:16:14;55.17;;;27.87;;
3299;SDS011;1662;49.310;8.134;2022-12-18T08:18:39;61.43;;;29.10;;
3299;SDS011;1662;49.310;8.134;2022-12-18T08:26:18;61.00;;;29.98;;
3299;SDS011;1662;49.310;8.134;2022-12-18T08:28:44;56.93;;;29.40;;
3299;SDS011;1662;49.310;8.134;2022-12-18T08:31:10;55.73;;;27.70;;
3299;SDS011;1662;49.310;8.134;2022-12-18T08:33:36;51.63;;;28.05;;
3299;SDS011;1662;49.310;8.134;2022-12-18T08:36:03;63.03;;;29.58;;
3299;SDS011;1662;49.310;8.134;2022-12-18T08:38:29;51.55;;;28.23;;
3299;SDS011;1662;49.310;8.134;2022-12-18T08:41:03;53.20;;;27.95;;
3299;SDS011;1662;49.310;8.134;2022-12-18T08:44:30;56.67;;;29.92;;
3299;SDS011;1662;49.310;8.134;2022-12-18T08:47:06;54.60;;;30.10;;
3299;SDS011;1662;49.310;8.134;2022-12-18T08:49:32;63.97;;;29.48;;
3299;SDS011;1662;49.310;8.134;2022-12-18T08:51:58;62.80;;;29.83;;
3299;SDS011;1662;49.310;8.134;2022-12-18T08:54:24;61.60;;;29.93;;
3299;SDS011;1662;49.310;8.134;2022-12-18T08:56:50;179.23;;;73.30;;
3299;SDS011;1662;49.310;8.134;2022-12-18T08:59:16;132.18;;;52.50;;
3299;SDS011;1662;49.310;8.134;2022-12-18T09:04:12;52.03;;;23.98;;
3299;SDS011;1662;49.310;8.134;2022-12-18T09:06:38;69.78;;;34.33;;
3299;SDS011;1662;49.310;8.134;2022-12-18T09:09:05;66.20;;;35.03;;
3299;SDS011;1662;49.310;8.134;2022-12-18T09:11:31;51.65;;;29.55;;
3299;SDS011;1662;49.310;8.134;2022-12-18T09:13:57;50.55;;;29.70;;
3299;SDS011;1662;49.310;8.134;2022-12-18T09:16:25;63.75;;;30.17;;
3299;SDS011;1662;49.310;8.134;2022-12-18T09:18:53;59.05;;;31.10;;
3299;SDS011;1662;49.310;8.134;2022-12-18T09:23:38;52.03;;;27.25;;
3299;SDS011;1662;49.310;8.134;2022-12-18T09:26:04;59.60;;;27.92;;
3299;SDS011;1662;49.310;8.134;2022-12-18T09:28:33;52.65;;;28.80;;
3299;SDS011;1662;49.310;8.134;2022-12-18T09:30:58;54.23;;;28.33;;
3299;SDS011;1662;49.310;8.134;2022-12-18T09:33:29;56.58;;;29.48;;
3299;SDS011;1662;49.310;8.134;2022-12-18T09:35:54;56.30;;;30.80;;
3299;SDS011;1662;49.310;8.134;2022-12-18T09:38:20;55.20;;;29.77;;
3299;SDS011;1662;49.310;8.134;2022-12-18T09:43:09;56.75;;;28.33;;
3299;SDS011;1662;49.310;8.134;2022-12-18T09:45:44;46.30;;;25.25;;
3299;SDS011;1662;49.310;8.134;2022-12-18T09:48:18;46.25;;;24.17;;
3299;SDS011;1662;49.310;8.134;2022-12-18T09:50:54;51.00;;;25.65;;
3299;SDS011;1662;49.310;8.134;2022-12-18T09:53:26;47.45;;;26.15;;
3299;SDS011;1662;49.310;8.134;2022-12-18T09:55:56;50.67;;;27.25;;
3299;SDS011;1662;49.310;8.134;2022-12-18T09:58:24;55.08;;;26.52;;
3299;SDS011;1662;49.310;8.134;2022-12-18T10:02:36;45.05;;;25.23;;
3299;SDS011;1662;49.310;8.134;2022-12-18T10:05:05;50.20;;;27.07;;
3299;SDS011;1662;49.310;8.134;2022-12-18T10:07:49;53.38;;;27.17;;
3299;SDS011;1662;49.310;8.134;2022-12-18T10:13:04;60.05;;;28.38;;
3299;SDS011;1662;49.310;8.134;2022-12-18T10:20:38;46.97;;;24.33;;
3299;SDS011;1662;49.310;8.134;2022-12-18T10:27:57;51.15;;;26.08;;
3299;SDS011;1662;49.310;8.134;2022-12-18T10:30:32;51.60;;;26.65;;
3299;SDS011;1662;49.310;8.134;2022-12-18T10:33:04;57.83;;;28.47;;
3299;SDS011;1662;49.310;8.134;2022-12-18T10:35:29;51.92;;;28.23;;
3299;SDS011;1662;49.310;8.134;2022-12-18T10:38:38;51.90;;;26.90;;
3299;SDS011;1662;49.310;8.134;2022-12-18T10:44:47;51.92;;;28.27;;
3299;SDS011;1662;49.310;8.134;2022-12-18T10:47:27;58.83;;;29.05;;
3299;SDS011;1662;49.310;8.134;2022-12-18T10:49:56;50.80;;;27.87;;
3299;SDS011;1662;49.310;8.134;2022-12-18T10:52:22;45.90;;;26.05;;
3299;SDS011;1662;49.310;8.134;2022-12-18T10:54:51;45.67;;;24.65;;
3299;SDS011;1662;49.310;8.134;2022-12-18T10:59:52;47.35;;;26.00;;
3299;SDS011;1662;49.310;8.134;2022-12-18T11:04:18;54.92;;;27.08;;
3299;SDS011;1662;49.310;8.134;2022-12-18T11:09:21;50.00;;;26.45;;
3299;SDS011;1662;49.310;8.134;2022-12-18T11:11:49;56.42;;;28.92;;
3299;SDS011;1662;49.310;8.134;2022-12-18T11:14:30;58.88;;;27.10;;
3299;SDS011;1662;49.310;8.134;2022-12-18T11:17:16;53.28;;;26.95;;
3299;SDS011;1662;49.310;8.134;2022-12-18T11:19:45;54.88;;;27.35;;
3299;SDS011;1662;49.310;8.134;2022-12-18T11:24:19;56.00;;;28.33;;
3299;SDS011;1662;49.310;8.134;2022-12-18T11:26:51;52.75;;;26.85;;
3299;SDS011;1662;49.310;8.134;2022-12-18T11:29:17;49.17;;;27.27;;
3299;SDS011;1662;49.310;8.134;2022-12-18T11:31:50;63.25;;;28.05;;
3299;SDS011;1662;49.310;8.134;2022-12-18T11:34:18;59.90;;;30.17;;
3299;SDS011;1662;49.310;8.134;2022-12-18T11:36:51;84.20;;;36.28;;
3299;SDS011;1662;49.310;8.134;2022-12-18T11:39:19;59.95;;;29.40;;
3299;SDS011;1662;49.310;8.134;2022-12-18T11:46:49;53.47;;;28.20;;
3299;SDS011;1662;49.310;8.134;2022-12-18T11:49:21;56.35;;;29.85;;
3299;SDS011;1662;49.310;8.134;2022-12-18T11:52:34;58.10;;;27.17;;
3299;SDS011;1662;49.310;8.134;2022-12-18T11:54:42;54.55;;;26.58;;
3299;SDS011;1662;49.310;8.134;2022-12-18T11:57:16;54.20;;;28.43;;
3299;SDS011;1662;49.310;8.134;2022-12-18T12:16:25;52.72;;;27.83;;
3299;SDS011;1662;49.310;8.134;2022-12-18T12:32:48;55.67;;;28.92;;
3299;SDS011;1662;49.310;8.134;2022-12-18T12:35:44;53.25;;;29.77;;
3299;SDS011;1662;49.310;8.134;2022-12-18T12:40:07;55.15;;;26.40;;
3299;SDS011;1662;49.310;8.134;2022-12-18T12:42:40;54.03;;;29.45;;
3299;SDS011;1662;49.310;8.134;2022-12-18T12:45:34;52.33;;;28.20;;
3299;SDS011;1662;49.310;8.134;2022-12-18T12:48:09;53.67;;;28.48;;
3299;SDS011;1662;49.310;8.134;2022-12-18T12:50:42;57.90;;;28.85;;
3299;SDS011;1662;49.310;8.134;2022-12-18T12:53:08;53.07;;;29.10;;
3299;SDS011;1662;49.310;8.134;2022-12-18T12:57:40;48.00;;;27.23;;
3299;SDS011;1662;49.310;8.134;2022-12-18T13:00:17;57.65;;;28.63;;
3299;SDS011;1662;49.310;8.134;2022-12-18T13:02:59;50.10;;;28.50;;
3299;SDS011;1662;49.310;8.134;2022-12-18T13:08:27;53.03;;;27.92;;
3299;SDS011;1662;49.310;8.134;2022-12-18T13:10:58;55.92;;;26.92;;
3299;SDS011;1662;49.310;8.134;2022-12-18T13:16:16;54.15;;;27.05;;
3299;SDS011;1662;49.310;8.134;2022-12-18T13:18:49;60.10;;;28.67;;
3299;SDS011;1662;49.310;8.134;2022-12-18T13:21:32;53.55;;;28.58;;
3299;SDS011;1662;49.310;8.134;2022-12-18T13:24:14;53.92;;;26.10;;
3299;SDS011;1662;49.310;8.134;2022-12-18T13:26:47;48.92;;;25.88;;
3299;SDS011;1662;49.310;8.134;2022-12-18T13:29:14;54.63;;;28.33;;
3299;SDS011;1662;49.310;8.134;2022-12-18T13:37:43;42.33;;;25.90;;
3299;SDS011;1662;49.310;8.134;2022-12-18T13:40:46;49.22;;;27.83;;
3299;SDS011;1662;49.310;8.134;2022-12-18T13:43:53;53.63;;;27.35;;
3299;SDS011;1662;49.310;8.134;2022-12-18T13:53:54;58.88;;;31.10;;
3299;SDS011;1662;49.310;8.134;2022-12-18T13:56:43;62.58;;;30.58;;
3299;SDS011;1662;49.310;8.134;2022-12-18T14:01:35;41.07;;;21.80;;
3299;SDS011;1662;49.310;8.134;2022-12-18T14:07:07;49.15;;;27.40;;
3299;SDS011;1662;49.310;8.134;2022-12-18T14:12:34;48.00;;;28.95;;
3299;SDS011;1662;49.310;8.134;2022-12-18T14:17:51;51.95;;;29.33;;
3299;SDS011;1662;49.310;8.134;2022-12-18T14:20:20;52.78;;;27.83;;
3299;SDS011;1662;49.310;8.134;2022-12-18T14:22:46;49.55;;;26.55;;
3299;SDS011;1662;49.310;8.134;2022-12-18T14:25:15;54.55;;;27.60;;
3299;SDS011;1662;49.310;8.134;2022-12-18T14:27:44;57.60;;;27.67;;
3299;SDS011;1662;49.310;8.134;2022-12-18T14:32:31;50.05;;;28.40;;
3299;SDS011;1662;49.310;8.134;2022-12-18T14:34:57;42.43;;;27.63;;
3299;SDS011;1662;49.310;8.134;2022-12-18T14:37:37;54.15;;;28.83;;
3299;SDS011;1662;49.310;8.134;2022-12-18T14:40:03;43.30;;;25.73;;
3299;SDS011;1662;49.310;8.134;2022-12-18T14:42:30;50.05;;;26.83;;
3299;SDS011;1662;49.310;8.134;2022-12-18T14:47:59;54.13;;;29.88;;
3299;SDS011;1662;49.310;8.134;2022-12-18T14:52:57;55.05;;;29.80;;
3299;SDS011;1662;49.310;8.134;2022-12-18T14:55:23;54.13;;;27.03;;
3299;SDS011;1662;49.310;8.134;2022-12-18T14:57:52;49.90;;;26.90;;
3299;SDS011;1662;49.310;8.134;2022-12-18T15:00:21;51.42;;;27.63;;
3299;SDS011;1662;49.310;8.134;2022-12-18T15:02:53;53.85;;;29.13;;
3299;SDS011;1662;49.310;8.134;2022-12-18T15:05:27;54.30;;;28.88;;
3299;SDS011;1662;49.310;8.134;2022-12-18T15:07:55;49.08;;;27.10;;
3299;SDS011;1662;49.310;8.134;2022-12-18T15:12:00;59.97;;;31.15;;
3299;SDS011;1662;49.310;8.134;2022-12-18T15:16:55;55.38;;;29.70;;
3299;SDS011;1662;49.310;8.134;2022-12-18T15:27:31;53.72;;;30.27;;
3299;SDS011;1662;49.310;8.134;2022-12-18T15:32:35;53.03;;;26.95;;
3299;SDS011;1662;49.310;8.134;2022-12-18T15:35:03;52.28;;;28.80;;
3299;SDS011;1662;49.310;8.134;2022-12-18T15:37:35;62.55;;;30.00;;
3299;SDS011;1662;49.310;8.134;2022-12-18T15:40:01;48.60;;;26.17;;
3299;SDS011;1662;49.310;8.134;2022-12-18T15:42:28;51.00;;;28.27;;
3299;SDS011;1662;49.310;8.134;2022-12-18T15:45:13;52.25;;;26.65;;
3299;SDS011;1662;49.310;8.134;2022-12-18T15:48:52;52.67;;;26.20;;
3299;SDS011;1662;49.310;8.134;2022-12-18T15:51:23;49.97;;;27.52;;
3299;SDS011;1662;49.310;8.134;2022-12-18T15:53:58;56.13;;;28.17;;
3299;SDS011;1662;49.310;8.134;2022-12-18T15:56:28;48.03;;;24.98;;
3299;SDS011;1662;49.310;8.134;2022-12-18T15:59:15;46.75;;;26.10;;
3299;SDS011;1662;49.310;8.134;2022-12-18T16:01:43;59.15;;;29.30;;
3299;SDS011;1662;49.310;8.134;2022-12-18T16:06:44;50.13;;;27.10;;
3299;SDS011;1662;49.310;8.134;2022-12-18T16:09:10;47.33;;;23.33;;
3299;SDS011;1662;49.310;8.134;2022-12-18T16:11:36;52.47;;;25.13;;
3299;SDS011;1662;49.310;8.134;2022-12-18T16:16:51;55.22;;;27.98;;
3299;SDS011;1662;49.310;8.134;2022-12-18T16:19:20;55.65;;;28.33;;
3299;SDS011;1662;49.310;8.134;2022-12-18T16:21:46;54.07;;;26.80;;
3299;SDS011;1662;49.310;8.134;2022-12-18T16:25:43;52.67;;;26.73;;
3299;SDS011;1662;49.310;8.134;2022-12-18T16:28:11;52.35;;;27.20;;
3299;SDS011;1662;49.310;8.134;2022-12-18T16:30:36;55.17;;;29.90;;
3299;SDS011;1662;49.310;8.134;2022-12-18T16:33:02;51.57;;;26.90;;
3299;SDS011;1662;49.310;8.134;2022-12-18T16:35:28;55.13;;;27.07;;
3299;SDS011;1662;49.310;8.134;2022-12-18T16:37:53;50.17;;;26.30;;
3299;SDS011;1662;49.310;8.134;2022-12-18T16:40:19;54.20;;;26.57;;
3299;SDS011;1662;49.310;8.134;2022-12-18T16:45:24;50.55;;;26.92;;
3299;SDS011;1662;49.310;8.134;2022-12-18T16:47:50;52.73;;;25.77;;
3299;SDS011;1662;49.310;8.134;2022-12-18T16:50:15;54.40;;;25.00;;
3299;SDS011;1662;49.310;8.134;2022-12-18T16:52:41;49.77;;;24.13;;
3299;SDS011;1662;49.310;8.134;2022-12-18T16:55:06;56.77;;;28.30;;
3299;SDS011;1662;49.310;8.134;2022-12-18T16:57:33;54.97;;;27.52;;
3299;SDS011;1662;49.310;8.134;2022-12-18T16:59:58;50.00;;;23.40;;
3299;SDS011;1662;49.310;8.134;2022-12-18T17:04:35;49.00;;;26.65;;
3299;SDS011;1662;49.310;8.134;2022-12-18T17:07:00;50.00;;;26.00;;
3299;SDS011;1662;49.310;8.134;2022-12-18T17:09:26;67.67;;;31.37;;
3299;SDS011;1662;49.310;8.134;2022-12-18T17:11:52;53.70;;;27.02;;
3299;SDS011;1662;49.310;8.134;2022-12-18T17:14:19;49.92;;;26.33;;
3299;SDS011;1662;49.310;8.134;2022-12-18T17:16:46;55.67;;;28.23;;
3299;SDS011;1662;49.310;8.134;2022-12-18T17:19:12;49.33;;;27.27;;
3299;SDS011;1662;49.310;8.134;2022-12-18T17:24:16;53.65;;;25.90;;
3299;SDS011;1662;49.310;8.134;2022-12-18T17:26:42;54.28;;;25.75;;
3299;SDS011;1662;49.310;8.134;2022-12-18T17:29:09;51.42;;;26.40;;
3299;SDS011;1662;49.310;8.134;2022-12-18T17:31:38;50.90;;;25.98;;
3299;SDS011;1662;49.310;8.134;2022-12-18T17:34:03;59.47;;;27.33;;
3299;SDS011;1662;49.310;8.134;2022-12-18T17:36:29;56.83;;;26.40;;
3299;SDS011;1662;49.310;8.134;2022-12-18T17:38:57;54.88;;;29.05;;
3299;SDS011;1662;49.310;8.134;2022-12-18T17:43:27;49.63;;;27.35;;
3299;SDS011;1662;49.310;8.134;2022-12-18T17:45:53;55.23;;;27.47;;
3299;SDS011;1662;49.310;8.134;2022-12-18T17:48:18;59.23;;;29.30;;
3299;SDS011;1662;49.310;8.134;2022-12-18T17:50:44;51.60;;;26.87;;
3299;SDS011;1662;49.310;8.134;2022-12-18T17:53:10;48.40;;;26.87;;
3299;SDS011;1662;49.310;8.134;2022-12-18T17:55:35;57.83;;;27.70;;
3299;SDS011;1662;49.310;8.134;2022-12-18T17:58:01;55.27;;;25.57;;
3299;SDS011;1662;49.310;8.134;2022-12-18T18:03:04;52.33;;;27.38;;
3299;SDS011;1662;49.310;8.134;2022-12-18T18:05:29;65.00;;;31.27;;
3299;SDS011;1662;49.310;8.134;2022-12-18T18:07:55;49.83;;;27.07;;
3299;SDS011;1662;49.310;8.134;2022-12-18T18:10:21;54.37;;;28.77;;
3299;SDS011;1662;49.310;8.134;2022-12-18T18:12:46;58.30;;;29.17;;
3299;SDS011;1662;49.310;8.134;2022-12-18T18:15:30;59.05;;;28.75;;
3299;SDS011;1662;49.310;8.134;2022-12-18T18:17:56;57.20;;;29.37;;
3299;SDS011;1662;49.310;8.134;2022-12-18T18:22:48;67.72;;;35.05;;
3299;SDS011;1662;49.310;8.134;2022-12-18T18:25:16;69.13;;;34.33;;
3299;SDS011;1662;49.310;8.134;2022-12-18T18:27:41;73.07;;;34.30;;
3299;SDS011;1662;49.310;8.134;2022-12-18T18:30:07;75.53;;;35.00;;
3299;SDS011;1662;49.310;8.134;2022-12-18T18:32:33;66.88;;;34.80;;
3299;SDS011;1662;49.310;8.134;2022-12-18T18:35:03;76.63;;;36.80;;
3299;SDS011;1662;49.310;8.134;2022-12-18T18:37:30;68.43;;;34.05;;
3299;SDS011;1662;49.310;8.134;2022-12-18T18:41:26;55.95;;;28.67;;
3299;SDS011;1662;49.310;8.134;2022-12-18T18:43:54;52.78;;;27.45;;
3299;SDS011;1662;49.310;8.134;2022-12-18T18:46:21;54.75;;;31.50;;